createdAt,value
2023-04-28T00:00:05.884Z,8.00
2023-04-28T00:02:34.375Z,6.18
2023-04-28T00:05:03.960Z,8.60
2023-04-28T00:07:32.017Z,9.90
2023-04-28T00:10:00.008Z,7.18
2023-04-28T00:12:27.757Z,7.65
2023-04-28T00:14:55.842Z,9.27
2023-04-28T00:17:23.909Z,10.10
2023-04-28T00:19:51.805Z,8.82
2023-04-28T00:22:21.291Z,15.52
2023-04-28T00:24:49.046Z,10.15
2023-04-28T00:27:16.922Z,11.30
2023-04-28T00:29:44.877Z,11.20
2023-04-28T00:32:13.673Z,11.55
2023-04-28T00:34:41.977Z,7.07
2023-04-28T00:37:09.842Z,8.55
2023-04-28T00:39:39.125Z,10.10
2023-04-28T00:42:07.309Z,10.60
2023-04-28T00:44:35.578Z,7.75
2023-04-28T00:47:04.054Z,5.18
2023-04-28T00:49:32.060Z,10.88
2023-04-28T00:52:03.708Z,7.53
2023-04-28T00:54:31.844Z,6.35
2023-04-28T00:57:03.325Z,8.30
2023-04-28T00:59:31.743Z,10.02
2023-04-28T01:02:01.757Z,6.00
2023-04-28T01:04:31.319Z,6.55
2023-04-28T01:07:00.447Z,7.47
2023-04-28T01:09:28.863Z,6.82
2023-04-28T01:11:58.586Z,10.00
2023-04-28T01:14:54.165Z,8.18
2023-04-28T01:17:22.509Z,8.43
2023-04-28T01:19:50.562Z,7.22
2023-04-28T01:22:18.471Z,8.77
2023-04-28T01:24:48.934Z,16.25
2023-04-28T01:27:17.119Z,6.38
2023-04-28T01:29:45.671Z,6.13
2023-04-28T01:32:13.816Z,10.75
2023-04-28T01:34:41.583Z,7.60
2023-04-28T01:37:09.513Z,10.13
2023-04-28T01:39:38.616Z,8.27
2023-04-28T01:42:08.328Z,7.38
2023-04-28T01:44:36.814Z,7.35
2023-04-28T01:47:04.701Z,6.55
2023-04-28T01:49:36.172Z,6.38
2023-04-28T01:52:04.449Z,6.45
2023-04-28T01:54:32.235Z,7.63
2023-04-28T01:57:00.254Z,8.02
2023-04-28T01:59:29.764Z,9.93
2023-04-28T02:01:57.749Z,7.88
2023-04-28T02:04:27.377Z,6.85
2023-04-28T02:06:55.434Z,6.60
2023-04-28T02:09:23.513Z,8.52
2023-04-28T02:11:51.897Z,12.52
2023-04-28T02:14:22.165Z,8.60
2023-04-28T02:16:51.372Z,6.57
2023-04-28T02:19:19.363Z,7.18
2023-04-28T02:21:47.265Z,21.33
2023-04-28T02:24:15.311Z,7.68
2023-04-28T02:26:43.746Z,7.80
2023-04-28T02:29:11.695Z,9.65
2023-04-28T02:31:39.695Z,7.13
2023-04-28T02:34:09.052Z,6.43
2023-04-28T02:36:36.923Z,7.65
2023-04-28T02:39:05.123Z,6.20
2023-04-28T02:41:34.648Z,10.27
2023-04-28T02:44:02.678Z,7.45
2023-04-28T02:46:30.747Z,8.45
2023-04-28T02:48:58.770Z,7.45
2023-04-28T02:51:28.748Z,7.97
2023-04-28T02:53:56.658Z,9.20
2023-04-28T02:56:25.070Z,10.60
2023-04-28T02:58:53.451Z,9.15
2023-04-28T03:01:21.584Z,8.48
2023-04-28T03:03:49.615Z,8.80
2023-04-28T03:06:17.814Z,8.52
2023-04-28T03:08:47.613Z,7.70
2023-04-28T03:11:15.502Z,8.30
2023-04-28T03:13:43.303Z,6.90
2023-04-28T03:16:11.446Z,8.57
2023-04-28T03:18:39.383Z,10.57
2023-04-28T03:21:07.507Z,7.38
2023-04-28T03:23:35.823Z,6.88
2023-04-28T03:26:05.507Z,8.27
2023-04-28T03:28:33.502Z,7.40
2023-04-28T03:31:02.786Z,8.88
2023-04-28T03:33:31.604Z,8.35
2023-04-28T03:36:00.893Z,11.80
2023-04-28T03:38:29.325Z,8.48
2023-04-28T03:40:57.345Z,8.30
2023-04-28T03:43:45.252Z,6.10
2023-04-28T03:46:24.066Z,7.53
2023-04-28T03:48:53.666Z,7.35
2023-04-28T03:51:22.096Z,8.32
2023-04-28T03:53:49.998Z,10.40
2023-04-28T03:56:18.475Z,10.18
2023-04-28T03:58:48.142Z,7.55
2023-04-28T04:01:16.319Z,10.13
2023-04-28T04:03:44.554Z,8.60
2023-04-28T04:06:13.103Z,9.40
2023-04-28T04:08:42.867Z,9.15
2023-04-28T04:11:10.786Z,6.97
2023-04-28T04:13:38.848Z,7.35
2023-04-28T04:16:11.469Z,6.97
2023-04-28T04:18:39.298Z,7.95
2023-04-28T04:21:19.776Z,7.78
2023-04-28T04:23:48.875Z,8.88
2023-04-28T04:26:17.534Z,6.07
2023-04-28T04:28:45.582Z,7.78
2023-04-28T04:31:15.418Z,10.43
2023-04-28T04:33:44.387Z,6.80
2023-04-28T04:36:12.454Z,10.02
2023-04-28T04:38:40.605Z,11.60
2023-04-28T04:41:17.797Z,13.52
2023-04-28T04:43:45.747Z,10.13
2023-04-28T04:46:15.025Z,7.97
2023-04-28T04:48:43.348Z,13.98
2023-04-28T04:51:11.424Z,13.05
2023-04-28T04:53:39.612Z,14.07
2023-04-28T04:56:08.008Z,11.35
2023-04-28T04:58:38.104Z,12.02
2023-04-28T05:01:24.764Z,12.73
2023-04-28T05:03:53.396Z,13.23
2023-04-28T05:06:21.513Z,11.30
2023-04-28T05:08:50.080Z,12.60
2023-04-28T05:11:18.936Z,12.00
2023-04-28T05:13:47.478Z,15.88
2023-04-28T05:16:15.781Z,12.68
2023-04-28T05:19:05.489Z,17.02
2023-04-28T05:21:33.875Z,14.73
2023-04-28T05:24:01.659Z,16.42
2023-04-28T05:26:30.911Z,14.98
2023-04-28T05:29:04.264Z,14.63
2023-04-28T05:31:32.184Z,16.83
2023-04-28T05:34:00.179Z,13.65
2023-04-28T05:36:30.388Z,16.70
2023-04-28T05:38:58.313Z,18.80
2023-04-28T05:41:26.971Z,17.35
2023-04-28T05:43:56.077Z,17.08
2023-04-28T05:46:30.476Z,15.02
2023-04-28T05:49:00.283Z,21.15
2023-04-28T05:51:34.217Z,16.02
2023-04-28T05:54:03.233Z,18.23
2023-04-28T05:56:32.797Z,16.50
2023-04-28T05:59:04.705Z,24.02
2023-04-28T06:01:33.052Z,15.45
2023-04-28T06:04:01.408Z,18.15
2023-04-28T06:06:29.884Z,18.10
2023-04-28T06:08:59.296Z,18.40
2023-04-28T06:11:27.376Z,23.05
2023-04-28T06:13:55.585Z,15.57
2023-04-28T06:16:24.377Z,17.77
2023-04-28T06:18:53.291Z,23.92
2023-04-28T06:21:22.344Z,16.30
2023-04-28T06:23:50.476Z,20.10
2023-04-28T06:26:20.169Z,17.25
2023-04-28T06:28:48.120Z,16.40
2023-04-28T06:31:16.463Z,22.30
2023-04-28T06:33:44.369Z,20.38
2023-04-28T06:36:14.100Z,22.52
2023-04-28T06:38:43.942Z,20.73
2023-04-28T06:41:12.161Z,19.10
2023-04-28T06:43:43.634Z,21.95
2023-04-28T06:46:15.752Z,17.77
2023-04-28T06:48:44.291Z,17.95
2023-04-28T06:51:12.894Z,22.50
2023-04-28T06:53:41.189Z,21.25
2023-04-28T06:56:11.252Z,24.73
2023-04-28T06:58:39.674Z,21.02
2023-04-28T07:01:09.170Z,24.17
2023-04-28T07:03:37.417Z,21.98
2023-04-28T07:06:06.984Z,21.45
2023-04-28T07:08:38.557Z,23.75
2023-04-28T07:11:07.078Z,23.48
2023-04-28T07:13:35.205Z,21.83
2023-04-28T07:16:03.246Z,21.98
2023-04-28T07:18:32.632Z,20.02
2023-04-28T07:21:01.169Z,21.73
2023-04-28T07:23:30.229Z,24.80
2023-04-28T07:25:58.759Z,23.25
2023-04-28T07:28:26.728Z,20.48
2023-04-28T07:30:54.944Z,20.35
2023-04-28T07:33:22.905Z,21.67
2023-04-28T07:35:53.200Z,23.35
2023-04-28T07:38:21.510Z,24.42
2023-04-28T07:43:23.245Z,26.13
2023-04-28T07:45:51.514Z,21.27
2023-04-28T07:48:19.423Z,23.90
2023-04-28T07:50:47.619Z,28.55
2023-04-28T07:53:17.017Z,21.48
2023-04-28T07:55:45.959Z,21.08
2023-04-28T07:58:14.350Z,21.77
2023-04-28T08:00:42.551Z,23.55
2023-04-28T08:03:10.917Z,24.42
2023-04-28T08:05:39.846Z,23.17
2023-04-28T08:08:07.905Z,24.90
2023-04-28T08:10:38.327Z,22.02
2023-04-28T08:13:06.184Z,22.02
2023-04-28T08:15:34.416Z,26.55
2023-04-28T08:18:02.550Z,23.75
2023-04-28T08:20:32.750Z,24.63
2023-04-28T08:23:00.556Z,27.98
2023-04-28T08:25:28.634Z,27.30
2023-04-28T08:27:58.856Z,21.80
2023-04-28T08:30:27.056Z,29.15
2023-04-28T08:32:54.964Z,26.63
2023-04-28T08:35:23.414Z,20.10
2023-04-28T08:37:51.251Z,20.75
2023-04-28T08:40:19.246Z,24.55
2023-04-28T08:42:47.369Z,21.42
2023-04-28T08:45:16.775Z,23.40
2023-04-28T08:47:47.626Z,20.55
2023-04-28T08:50:15.906Z,18.02
2023-04-28T08:52:44.484Z,20.15
2023-04-28T08:55:13.873Z,21.98
2023-04-28T08:57:44.930Z,23.33
2023-04-28T09:00:14.019Z,24.88
2023-04-28T09:02:43.664Z,25.27
2023-04-28T09:05:13.806Z,24.08
2023-04-28T09:07:42.562Z,20.88
2023-04-28T09:10:18.698Z,23.73
2023-04-28T09:12:46.967Z,26.70
2023-04-28T09:15:27.019Z,27.67
2023-04-28T09:17:56.356Z,22.02
2023-04-28T09:20:24.851Z,19.77
2023-04-28T09:22:54.396Z,23.13
2023-04-28T09:25:23.625Z,27.13
2023-04-28T09:27:53.362Z,22.27
2023-04-28T09:30:21.904Z,24.48
2023-04-28T09:33:10.703Z,24.55
2023-04-28T09:35:43.181Z,27.77
2023-04-28T09:38:11.248Z,25.98
2023-04-28T09:40:54.431Z,22.48
2023-04-28T09:43:30.663Z,22.88
2023-04-28T09:46:00.048Z,20.77
2023-04-28T09:48:33.824Z,18.75
2023-04-28T09:51:03.100Z,25.52
2023-04-28T09:53:31.593Z,24.10
2023-04-28T09:56:01.428Z,22.13
2023-04-28T09:58:30.711Z,20.55
2023-04-28T10:01:00.044Z,26.67
2023-04-28T10:03:31.997Z,20.58
2023-04-28T10:06:00.540Z,19.98
2023-04-28T10:08:28.803Z,24.55
2023-04-28T10:10:57.904Z,24.70
2023-04-28T10:13:26.158Z,21.95
2023-04-28T10:15:55.596Z,24.92
2023-04-28T10:18:24.784Z,23.50
2023-04-28T10:20:59.485Z,21.35
2023-04-28T10:24:04.861Z,19.90
2023-04-28T10:29:06.991Z,21.85
2023-04-28T10:31:37.121Z,28.02
2023-04-28T10:34:23.000Z,19.70
2023-04-28T10:36:55.160Z,26.52
2023-04-28T10:39:23.306Z,20.73
2023-04-28T10:41:51.440Z,22.40
2023-04-28T10:44:44.152Z,22.02
2023-04-28T10:47:12.430Z,18.58
2023-04-28T10:50:06.923Z,18.98
2023-04-28T10:52:57.385Z,19.88
2023-04-28T10:55:33.752Z,16.70
2023-04-28T10:58:33.635Z,18.60
2023-04-28T11:01:26.703Z,16.92
2023-04-28T11:04:00.771Z,16.50
2023-04-28T11:06:31.519Z,15.52
2023-04-28T11:09:02.429Z,14.75
2023-04-28T11:11:30.862Z,14.38
2023-04-28T11:14:31.782Z,13.80
2023-04-28T11:17:01.212Z,13.18
2023-04-28T11:19:30.589Z,12.88
2023-04-28T11:22:01.164Z,14.10
2023-04-28T11:24:31.697Z,12.85
2023-04-28T11:27:00.623Z,12.88
2023-04-28T11:29:36.088Z,13.02
2023-04-28T11:32:04.613Z,13.43
2023-04-28T11:34:32.817Z,12.63
2023-04-28T11:37:01.116Z,13.40
2023-04-28T11:39:31.508Z,14.57
2023-04-28T11:42:00.267Z,18.98
2023-04-28T11:44:29.662Z,21.80
2023-04-28T11:47:00.870Z,21.30
2023-04-28T11:49:30.377Z,22.70
2023-04-28T11:52:00.464Z,22.90
2023-04-28T11:54:30.599Z,22.52
2023-04-28T11:56:59.426Z,21.33
2023-04-28T11:59:28.905Z,21.90
2023-04-28T12:01:59.200Z,21.90
2023-04-28T12:04:28.720Z,22.27
2023-04-28T12:07:01.244Z,20.27
2023-04-28T12:09:31.012Z,19.25
2023-04-28T12:11:59.892Z,20.90
2023-04-28T12:14:27.865Z,19.65
2023-04-28T12:16:56.983Z,20.02
2023-04-28T12:19:25.348Z,18.23
2023-04-28T12:22:01.099Z,15.38
2023-04-28T12:24:30.625Z,14.88
2023-04-28T12:27:17.552Z,13.93
2023-04-28T12:29:47.417Z,15.32
2023-04-28T12:32:16.135Z,14.70
2023-04-28T12:34:46.021Z,17.13
2023-04-28T12:37:14.366Z,13.25
2023-04-28T12:39:44.257Z,13.70
2023-04-28T12:42:12.437Z,15.75
2023-04-28T12:44:40.976Z,13.75
2023-04-28T12:47:10.938Z,17.45
2023-04-28T12:49:39.128Z,15.00
2023-04-28T12:52:07.877Z,14.60
2023-04-28T12:54:35.885Z,14.93
2023-04-28T12:57:05.745Z,12.77
2023-04-28T12:59:34.763Z,14.18
2023-04-28T13:02:03.453Z,13.65
2023-04-28T13:04:32.395Z,13.25
2023-04-28T13:07:00.784Z,9.75
2023-04-28T13:09:28.749Z,8.77
2023-04-28T13:11:56.920Z,9.05
2023-04-28T13:14:28.032Z,8.93
2023-04-28T13:16:56.165Z,8.98
2023-04-28T13:19:24.212Z,9.02
2023-04-28T13:21:52.249Z,8.98
2023-04-28T13:24:20.487Z,4.55
2023-04-28T13:26:48.588Z,4.88
2023-04-28T13:29:16.505Z,8.07
2023-04-28T13:31:46.315Z,4.78
2023-04-28T13:34:16.387Z,4.72
2023-04-28T13:36:45.062Z,3.35
2023-04-28T13:39:14.819Z,4.68
2023-04-28T13:41:43.053Z,2.88
2023-04-28T13:44:11.052Z,4.57
2023-04-28T13:46:38.969Z,2.53
2023-04-28T13:49:08.441Z,3.75
2023-04-28T13:51:36.506Z,3.53
2023-04-28T13:54:05.520Z,3.15
2023-04-28T13:56:33.372Z,3.15
2023-04-28T13:59:01.556Z,4.35
2023-04-28T14:01:29.862Z,5.32
2023-04-28T14:03:58.212Z,3.40
2023-04-28T14:06:28.903Z,4.95
2023-04-28T14:08:57.288Z,4.20
2023-04-28T14:11:25.350Z,4.28
2023-04-28T14:13:53.478Z,4.43
2023-04-28T14:16:21.709Z,4.57
2023-04-28T14:18:49.942Z,4.25
2023-04-28T14:21:17.854Z,5.05
2023-04-28T14:23:47.452Z,4.80
2023-04-28T14:26:15.410Z,4.90
2023-04-28T14:28:43.450Z,4.30
2023-04-28T14:31:11.400Z,5.30
2023-04-28T14:33:39.218Z,6.18
2023-04-28T14:36:07.462Z,22.63
2023-04-28T14:38:35.771Z,22.83
2023-04-28T14:41:06.259Z,42.40
2023-04-28T14:43:34.235Z,27.67
2023-04-28T14:46:02.350Z,32.28
2023-04-28T14:48:30.187Z,18.52
2023-04-28T14:50:58.704Z,45.63
2023-04-28T14:53:27.260Z,27.70
2023-04-28T14:56:01.950Z,17.77
2023-04-28T14:58:36.870Z,5.97
2023-04-28T15:01:05.050Z,4.25
2023-04-28T15:03:33.276Z,4.85
2023-04-28T15:06:01.863Z,4.53
2023-04-28T15:08:30.176Z,5.35
2023-04-28T15:10:58.435Z,4.68
2023-04-28T15:13:27.950Z,7.03
2023-04-28T15:15:57.554Z,7.28
2023-04-28T15:18:25.703Z,8.50
2023-04-28T15:20:54.004Z,8.95
2023-04-28T15:23:22.474Z,11.63
2023-04-28T15:25:53.543Z,9.25
2023-04-28T15:28:22.168Z,9.13
2023-04-28T15:30:50.329Z,10.93
2023-04-28T15:33:19.711Z,13.05
2023-04-28T15:35:47.714Z,13.70
2023-04-28T15:38:16.384Z,17.02
2023-04-28T15:40:44.665Z,13.25
2023-04-28T15:43:13.423Z,17.20
2023-04-28T15:45:41.535Z,16.48
2023-04-28T15:48:10.200Z,12.50
2023-04-28T15:50:40.144Z,13.15
2023-04-28T15:53:08.208Z,16.10
2023-04-28T15:55:36.893Z,17.20
2023-04-28T15:58:04.967Z,13.88
2023-04-28T16:00:33.444Z,13.70
2023-04-28T16:03:01.706Z,13.32
2023-04-28T16:05:29.835Z,15.68
2023-04-28T16:07:58.994Z,14.00
2023-04-28T16:10:27.098Z,13.45
2023-04-28T16:12:54.923Z,15.73
2023-04-28T16:15:23.089Z,14.45
2023-04-28T16:17:52.020Z,15.05
2023-04-28T16:20:20.107Z,15.20
2023-04-28T16:22:48.443Z,15.45
2023-04-28T16:25:17.924Z,19.35
2023-04-28T16:27:46.421Z,18.75
2023-04-28T16:30:14.429Z,19.48
2023-04-28T16:32:42.632Z,20.60
2023-04-28T16:35:15.105Z,19.88
2023-04-28T16:37:44.159Z,25.05
2023-04-28T16:40:13.321Z,24.40
2023-04-28T16:42:43.882Z,23.83
2023-04-28T16:45:12.701Z,22.08
2023-04-28T16:47:42.551Z,19.65
2023-04-28T16:50:11.600Z,23.85
2023-04-28T16:52:39.513Z,24.80
2023-04-28T16:55:08.607Z,23.70
2023-04-28T16:57:36.798Z,23.08
2023-04-28T17:00:08.545Z,24.50
2023-04-28T17:02:36.662Z,19.67
2023-04-28T17:05:04.869Z,22.13
2023-04-28T17:07:32.608Z,24.08
2023-04-28T17:10:00.796Z,25.15
2023-04-28T17:12:28.973Z,24.58
2023-04-28T17:14:57.116Z,27.27
2023-04-28T17:17:26.451Z,23.25
2023-04-28T17:19:54.290Z,21.27
2023-04-28T17:22:22.312Z,20.38
2023-04-28T17:24:50.400Z,20.55
2023-04-28T17:27:18.488Z,16.27
2023-04-28T17:29:46.333Z,16.30
2023-04-28T17:32:14.099Z,18.50
2023-04-28T17:34:43.714Z,16.83
2023-04-28T17:37:11.904Z,14.23
2023-04-28T17:39:39.821Z,18.33
2023-04-28T17:42:08.020Z,13.52
2023-04-28T17:44:35.786Z,13.52
2023-04-28T17:47:03.832Z,11.77
2023-04-28T17:49:31.919Z,13.38
2023-04-28T17:52:01.203Z,12.13
2023-04-28T17:54:29.119Z,12.02
2023-04-28T17:56:57.353Z,14.77
2023-04-28T17:59:25.538Z,11.07
2023-04-28T18:01:56.223Z,11.85
2023-04-28T18:04:24.393Z,11.35
2023-04-28T18:06:52.252Z,10.00
2023-04-28T18:09:21.628Z,10.65
2023-04-28T18:11:49.512Z,16.42
2023-04-28T18:14:18.573Z,9.27
2023-04-28T18:16:46.640Z,11.63
2023-04-28T18:19:14.636Z,6.70
2023-04-28T18:21:42.721Z,5.65
2023-04-28T18:24:10.610Z,6.03
2023-04-28T18:26:39.952Z,7.25
2023-04-28T18:29:07.688Z,4.50
2023-04-28T18:31:35.769Z,5.95
2023-04-28T18:34:05.157Z,4.10
2023-04-28T18:36:34.767Z,4.85
2023-04-28T18:39:04.214Z,7.50
2023-04-28T18:41:34.437Z,8.45
2023-04-28T18:44:04.201Z,4.90
2023-04-28T18:46:32.883Z,6.55
2023-04-28T18:49:00.869Z,8.57
2023-04-28T18:51:28.781Z,8.48
2023-04-28T18:53:57.015Z,14.82
2023-04-28T18:56:24.921Z,13.38
2023-04-28T18:58:52.798Z,15.35
2023-04-28T19:01:22.512Z,15.70
2023-04-28T19:03:51.922Z,16.42
2023-04-28T19:06:20.385Z,19.85
2023-04-28T19:08:48.299Z,21.52
2023-04-28T19:11:16.140Z,20.88
2023-04-28T19:13:45.085Z,19.17
2023-04-28T19:16:13.744Z,24.30
2023-04-28T19:18:44.554Z,19.60
2023-04-28T19:21:13.784Z,22.30
2023-04-28T19:23:41.962Z,19.50
2023-04-28T19:26:10.619Z,22.17
2023-04-28T19:28:38.528Z,26.15
2023-04-28T19:31:06.410Z,24.17
2023-04-28T19:33:34.274Z,27.40
2023-04-28T19:36:05.463Z,29.05
2023-04-28T19:38:35.478Z,28.20
2023-04-28T19:41:03.514Z,30.25
2023-04-28T19:43:31.651Z,30.85
2023-04-28T19:45:59.656Z,30.08
2023-04-28T19:48:27.530Z,28.83
2023-04-28T19:50:56.546Z,33.28
2023-04-28T19:53:25.866Z,30.45
2023-04-28T19:55:54.932Z,33.28
2023-04-28T19:58:23.008Z,32.78
2023-04-28T20:00:51.079Z,38.67
2023-04-28T20:03:19.156Z,36.08
2023-04-28T20:05:47.254Z,36.97
2023-04-28T20:08:15.233Z,35.65
2023-04-28T20:10:44.581Z,33.03
2023-04-28T20:13:12.761Z,38.70
2023-04-28T20:15:40.660Z,31.75
2023-04-28T20:18:08.869Z,35.72
2023-04-28T20:20:36.717Z,37.13
2023-04-28T20:23:04.459Z,36.75
2023-04-28T20:25:32.512Z,36.40
2023-04-28T20:28:01.709Z,38.50
2023-04-28T20:30:29.533Z,36.22
2023-04-28T20:32:57.501Z,40.53
2023-04-28T20:35:25.425Z,36.97
2023-04-28T20:37:53.804Z,41.55
2023-04-28T20:40:22.986Z,49.75
2023-04-28T20:42:50.757Z,43.72
2023-04-28T20:45:20.464Z,45.70
2023-04-28T20:47:48.619Z,47.03
2023-04-28T20:50:16.638Z,46.28
2023-04-28T20:52:45.155Z,47.40
2023-04-28T20:55:12.899Z,50.20
2023-04-28T20:57:40.948Z,50.25
2023-04-28T21:00:10.760Z,53.22
2023-04-28T21:02:40.452Z,54.70
2023-04-28T21:05:09.066Z,53.33
2023-04-28T21:07:36.851Z,56.65
2023-04-28T21:10:05.312Z,59.03
2023-04-28T21:12:33.207Z,58.97
2023-04-28T21:15:01.210Z,67.88
2023-04-28T21:17:29.374Z,72.32
2023-04-28T21:19:59.000Z,72.47
2023-04-28T21:22:27.977Z,69.63
2023-04-28T21:24:56.168Z,79.90
2023-04-28T21:27:24.357Z,78.82
2023-04-28T21:29:52.894Z,76.93
2023-04-28T21:32:21.010Z,77.88
2023-04-28T21:34:49.806Z,86.55
2023-04-28T21:37:19.365Z,83.75
2023-04-28T21:39:47.159Z,87.45
2023-04-28T21:42:15.345Z,91.93
2023-04-28T21:44:43.034Z,98.85
2023-04-28T21:47:10.924Z,94.53
2023-04-28T21:49:38.738Z,90.20
2023-04-28T21:52:06.559Z,97.47
2023-04-28T21:54:35.925Z,93.47
2023-04-28T21:57:04.015Z,85.35
2023-04-28T21:59:32.312Z,73.00
2023-04-28T22:02:00.302Z,69.38
2023-04-28T22:04:29.006Z,75.15
2023-04-28T22:06:57.352Z,67.32
2023-04-28T22:09:25.841Z,59.17
2023-04-28T22:11:55.132Z,60.95
2023-04-28T22:14:39.561Z,51.20
2023-04-28T22:17:09.198Z,56.22
2023-04-28T22:19:37.003Z,45.78
2023-04-28T22:22:05.554Z,49.05
2023-04-28T22:24:33.434Z,47.50
2023-04-28T22:27:03.253Z,47.75
2023-04-28T22:29:31.291Z,48.05
2023-04-28T22:31:59.712Z,54.17
2023-04-28T22:34:28.181Z,52.13
2023-04-28T22:36:56.177Z,48.78
2023-04-28T22:39:25.171Z,51.75
2023-04-28T22:41:53.144Z,47.60
2023-04-28T22:44:22.669Z,44.50
2023-04-28T22:46:50.807Z,45.97
2023-04-28T22:49:24.685Z,45.33
2023-04-28T22:51:52.637Z,41.85
2023-04-28T22:54:20.776Z,46.80
2023-04-28T22:56:50.314Z,44.72
2023-04-28T22:59:20.153Z,47.28
2023-04-28T23:01:49.637Z,47.38
2023-04-28T23:04:17.940Z,46.40
2023-04-28T23:06:46.070Z,40.83
2023-04-28T23:09:14.084Z,40.92
2023-04-28T23:11:42.021Z,39.80
2023-04-28T23:14:09.903Z,39.72
2023-04-28T23:16:38.210Z,42.97
2023-04-28T23:19:08.765Z,38.53
2023-04-28T23:21:36.764Z,39.53
2023-04-28T23:24:05.092Z,42.60
2023-04-28T23:26:33.259Z,41.97
2023-04-28T23:29:01.085Z,40.55
2023-04-28T23:31:29.513Z,44.50
2023-04-28T23:33:57.632Z,45.28
2023-04-28T23:36:27.967Z,40.28
2023-04-28T23:38:55.804Z,43.38
2023-04-28T23:41:23.630Z,43.20
2023-04-28T23:43:52.015Z,42.53
2023-04-28T23:46:20.473Z,43.03
2023-04-28T23:48:48.344Z,46.55
2023-04-28T23:51:16.326Z,46.15
2023-04-28T23:53:46.089Z,51.90
2023-04-28T23:56:14.110Z,46.70
2023-04-28T23:58:42.301Z,46.85
